createdAt,value
2023-04-08T00:00:00.058Z,59.05
2023-04-08T00:01:00.024Z,59.15
2023-04-08T00:02:00.204Z,59.05
2023-04-08T00:03:00.139Z,59.05
2023-04-08T00:04:00.180Z,58.92
2023-04-08T00:05:00.177Z,58.94
2023-04-08T00:06:00.037Z,58.84
2023-04-08T00:07:00.002Z,58.74
2023-04-08T00:08:00.000Z,58.84
2023-04-08T00:08:59.957Z,58.84
2023-04-08T00:09:59.988Z,58.74
2023-04-08T00:10:59.933Z,58.74
2023-04-08T00:11:59.960Z,59.05
2023-04-08T00:12:59.929Z,59.46
2023-04-08T00:13:59.913Z,59.49
2023-04-08T00:14:59.910Z,59.69
2023-04-08T00:15:59.901Z,59.80
2023-04-08T00:16:59.879Z,60.00
2023-04-08T00:17:59.924Z,59.90
2023-04-08T00:18:59.849Z,60.11
2023-04-08T00:19:59.858Z,60.11
2023-04-08T00:20:59.847Z,60.21
2023-04-08T00:21:59.841Z,60.24
2023-04-08T00:22:59.850Z,60.55
2023-04-08T00:23:59.817Z,61.07
2023-04-08T00:24:59.815Z,61.27
2023-04-08T00:25:59.775Z,61.48
2023-04-08T00:26:59.793Z,61.51
2023-04-08T00:27:59.754Z,61.69
2023-04-08T00:28:59.793Z,61.82
2023-04-08T00:29:59.723Z,61.48
2023-04-08T00:30:59.824Z,61.48
2023-04-08T00:31:59.721Z,61.69
2023-04-08T00:32:59.770Z,61.48
2023-04-08T00:33:59.715Z,61.48
2023-04-08T00:34:59.751Z,61.69
2023-04-08T00:35:59.691Z,61.48
2023-04-08T00:36:59.710Z,61.38
2023-04-08T00:37:59.649Z,61.38
2023-04-08T00:38:59.663Z,61.58
2023-04-08T00:39:59.623Z,61.69
2023-04-08T00:40:59.645Z,62.10
2023-04-08T00:41:59.633Z,61.99
2023-04-08T00:42:59.639Z,61.79
2023-04-08T00:43:59.584Z,61.38
2023-04-08T00:44:59.628Z,61.27
2023-04-08T00:45:59.675Z,61.38
2023-04-08T00:46:59.580Z,61.27
2023-04-08T00:47:59.688Z,61.38
2023-04-08T00:48:59.587Z,61.48
2023-04-08T00:49:59.527Z,61.38
2023-04-08T00:50:59.540Z,60.86
2023-04-08T00:51:59.515Z,60.75
2023-04-08T00:52:59.563Z,61.27
2023-04-08T00:53:59.483Z,61.07
2023-04-08T00:54:59.505Z,61.38
2023-04-08T00:55:59.469Z,61.17
2023-04-08T00:56:59.515Z,61.27
2023-04-08T00:57:59.448Z,61.20
2023-04-08T00:58:59.453Z,61.20
2023-04-08T00:59:59.425Z,61.51
2023-04-08T01:00:59.446Z,61.51
2023-04-08T01:01:59.510Z,61.71
2023-04-08T01:02:59.530Z,62.26
2023-04-08T01:03:59.530Z,62.57
2023-04-08T01:04:59.392Z,62.77
2023-04-08T01:05:59.374Z,62.98
2023-04-08T01:06:59.371Z,63.19
2023-04-08T01:07:59.342Z,63.43
2023-04-08T01:08:59.376Z,63.84
2023-04-08T01:09:59.321Z,64.15
2023-04-08T01:10:59.327Z,64.36
2023-04-08T01:11:59.356Z,64.46
2023-04-08T01:12:59.314Z,64.56
2023-04-08T01:13:59.306Z,64.56
2023-04-08T01:14:59.296Z,64.67
2023-04-08T01:15:59.301Z,64.77
2023-04-08T01:16:59.278Z,64.77
2023-04-08T01:17:59.264Z,64.77
2023-04-08T01:18:59.254Z,64.56
2023-04-08T01:19:59.240Z,64.43
2023-04-08T01:20:59.236Z,64.43
2023-04-08T01:21:59.200Z,64.43
2023-04-08T01:22:59.238Z,64.43
2023-04-08T01:23:59.182Z,64.43
2023-04-08T01:24:59.197Z,64.67
2023-04-08T01:25:59.152Z,64.77
2023-04-08T01:26:59.164Z,65.19
2023-04-08T01:27:59.132Z,65.50
2023-04-08T01:28:59.170Z,65.91
2023-04-08T01:29:59.109Z,66.02
2023-04-08T01:30:59.143Z,66.12
2023-04-08T01:31:59.095Z,66.12
2023-04-08T01:32:59.136Z,65.91
2023-04-08T01:33:59.092Z,65.81
2023-04-08T01:34:59.130Z,65.81
2023-04-08T01:35:59.130Z,65.70
2023-04-08T01:36:59.064Z,65.81
2023-04-08T01:37:59.042Z,65.50
2023-04-08T01:38:59.051Z,65.39
2023-04-08T01:39:59.060Z,65.60
2023-04-08T01:40:59.026Z,65.60
2023-04-08T01:41:58.990Z,65.70
2023-04-08T01:42:59.012Z,65.50
2023-04-08T01:43:58.979Z,65.50
2023-04-08T01:44:59.011Z,65.39
2023-04-08T01:45:58.978Z,65.50
2023-04-08T01:46:59.053Z,65.47
2023-04-08T01:47:58.968Z,65.47
2023-04-08T01:48:58.986Z,65.26
2023-04-08T01:49:58.940Z,65.16
2023-04-08T01:50:58.951Z,64.95
2023-04-08T01:51:58.905Z,64.84
2023-04-08T01:52:58.913Z,65.05
2023-04-08T01:53:58.884Z,65.05
2023-04-08T01:54:58.906Z,65.05
2023-04-08T01:55:58.892Z,65.39
2023-04-08T01:56:58.872Z,65.47
2023-04-08T01:57:58.830Z,65.47
2023-04-08T01:58:58.850Z,65.47
2023-04-08T01:59:58.842Z,65.05
2023-04-08T02:00:58.833Z,65.05
2023-04-08T02:01:58.926Z,65.16
2023-04-08T02:02:59.061Z,65.26
2023-04-08T02:03:58.897Z,65.36
2023-04-08T02:04:58.787Z,65.16
2023-04-08T02:05:58.776Z,65.05
2023-04-08T02:06:58.806Z,64.53
2023-04-08T02:07:58.747Z,63.81
2023-04-08T02:08:58.743Z,63.37
2023-04-08T02:09:58.753Z,62.65
2023-04-08T02:10:58.718Z,62.13
2023-04-08T02:11:58.717Z,62.23
2023-04-08T02:12:58.702Z,62.02
2023-04-08T02:13:58.666Z,61.79
2023-04-08T02:14:58.693Z,61.58
2023-04-08T02:15:58.664Z,61.27
2023-04-08T02:16:58.673Z,61.07
2023-04-08T02:17:58.679Z,60.65
2023-04-08T02:18:58.642Z,60.75
2023-04-08T02:19:58.608Z,60.65
2023-04-08T02:20:58.631Z,60.44
2023-04-08T02:21:58.593Z,60.21
2023-04-08T02:22:58.624Z,60.21
2023-04-08T02:23:58.942Z,60.00
2023-04-08T02:24:58.602Z,60.21
2023-04-08T02:25:58.556Z,60.21
2023-04-08T02:26:58.557Z,60.44
2023-04-08T02:27:58.532Z,60.75
2023-04-08T02:28:58.568Z,61.17
2023-04-08T02:29:58.512Z,61.48
2023-04-08T02:30:58.517Z,61.71
2023-04-08T02:31:58.546Z,61.71
2023-04-08T02:32:58.524Z,61.71
2023-04-08T02:33:58.462Z,61.69
2023-04-08T02:34:58.501Z,61.69
2023-04-08T02:35:58.508Z,61.79
2023-04-08T02:36:58.458Z,61.69
2023-04-08T02:37:58.424Z,61.58
2023-04-08T02:38:58.431Z,61.69
2023-04-08T02:39:58.437Z,62.10
2023-04-08T02:40:58.414Z,62.62
2023-04-08T02:41:58.382Z,62.93
2023-04-08T02:42:58.400Z,63.06
2023-04-08T02:43:58.390Z,62.95
2023-04-08T02:44:58.380Z,62.85
2023-04-08T02:45:58.408Z,63.06
2023-04-08T02:46:58.354Z,63.16
2023-04-08T02:47:58.336Z,63.47
2023-04-08T02:48:58.345Z,63.68
2023-04-08T02:49:58.307Z,63.47
2023-04-08T02:50:58.314Z,63.47
2023-04-08T02:51:58.311Z,63.47
2023-04-08T02:52:58.300Z,63.78
2023-04-08T02:53:58.254Z,63.37
2023-04-08T02:54:58.279Z,63.06
2023-04-08T02:55:58.264Z,63.06
2023-04-08T02:56:58.277Z,62.75
2023-04-08T02:57:58.244Z,62.44
2023-04-08T02:58:58.239Z,62.20
2023-04-08T02:59:58.195Z,62.20
2023-04-08T03:00:58.213Z,62.20
2023-04-08T03:01:58.308Z,62.62
2023-04-08T03:02:58.335Z,62.51
2023-04-08T03:03:58.160Z,62.51
2023-04-08T03:04:58.172Z,62.41
2023-04-08T03:05:58.130Z,62.30
2023-04-08T03:06:58.150Z,62.41
2023-04-08T03:07:58.148Z,61.99
2023-04-08T03:08:58.124Z,62.10
2023-04-08T03:09:58.088Z,61.79
2023-04-08T03:10:58.103Z,61.66
2023-04-08T03:11:58.097Z,61.76
2023-04-08T03:12:58.082Z,61.87
2023-04-08T03:13:58.051Z,61.99
2023-04-08T03:14:58.105Z,61.97
2023-04-08T03:15:58.033Z,62.17
2023-04-08T03:16:58.147Z,62.17
2023-04-08T03:17:58.048Z,62.30
2023-04-08T03:18:58.030Z,62.62
2023-04-08T03:19:57.997Z,62.72
2023-04-08T03:20:58.045Z,62.41
2023-04-08T03:21:57.982Z,62.41
2023-04-08T03:22:58.012Z,62.48
2023-04-08T03:23:57.982Z,62.69
2023-04-08T03:24:57.960Z,63.03
2023-04-08T03:25:57.952Z,63.23
2023-04-08T03:26:57.947Z,63.13
2023-04-08T03:27:57.908Z,63.13
2023-04-08T03:28:57.939Z,63.13
2023-04-08T03:29:57.894Z,63.34
2023-04-08T03:30:57.907Z,63.44
2023-04-08T03:31:57.884Z,63.44
2023-04-08T03:32:57.937Z,63.62
2023-04-08T03:33:57.872Z,63.42
2023-04-08T03:34:57.852Z,63.42
2023-04-08T03:35:57.855Z,63.42
2023-04-08T03:36:57.841Z,63.51
2023-04-08T03:37:57.808Z,63.62
2023-04-08T03:38:57.819Z,63.96
2023-04-08T03:39:57.808Z,63.93
2023-04-08T03:40:57.807Z,64.14
2023-04-08T03:41:57.797Z,64.89
2023-04-08T03:42:57.794Z,65.27
2023-04-08T03:43:57.745Z,65.30
2023-04-08T03:44:57.781Z,65.41
2023-04-08T03:45:57.749Z,65.61
2023-04-08T03:46:57.746Z,65.82
2023-04-08T03:47:57.745Z,66.03
2023-04-08T03:48:57.715Z,66.33
2023-04-08T03:49:57.712Z,66.13
2023-04-08T03:50:57.701Z,66.06
2023-04-08T03:51:57.660Z,66.16
2023-04-08T03:52:57.671Z,66.67
2023-04-08T03:53:57.646Z,66.47
2023-04-08T03:54:57.683Z,66.67
2023-04-08T03:55:57.622Z,66.78
2023-04-08T03:56:57.637Z,66.99
2023-04-08T03:57:57.592Z,66.96
2023-04-08T03:58:57.605Z,66.26
2023-04-08T03:59:57.595Z,66.16
2023-04-08T04:00:57.587Z,65.75
2023-04-08T04:01:57.603Z,65.85
2023-04-08T04:02:57.669Z,65.64
2023-04-08T04:03:57.733Z,65.75
2023-04-08T04:04:57.592Z,65.95
2023-04-08T04:05:57.583Z,65.95
2023-04-08T04:06:57.528Z,65.75
2023-04-08T04:07:57.496Z,65.95
2023-04-08T04:08:57.510Z,65.85
2023-04-08T04:09:57.472Z,65.64
2023-04-08T04:10:57.485Z,65.33
2023-04-08T04:11:57.476Z,65.54
2023-04-08T04:12:57.473Z,65.33
2023-04-08T04:13:57.439Z,65.12
2023-04-08T04:14:57.449Z,64.89
2023-04-08T04:15:57.524Z,65.02
2023-04-08T04:16:57.451Z,65.09
2023-04-08T04:17:57.441Z,64.99
2023-04-08T04:18:57.499Z,65.51
2023-04-08T04:19:57.368Z,65.51
2023-04-08T04:20:57.386Z,64.99
2023-04-08T04:21:57.386Z,64.78
2023-04-08T04:22:57.376Z,65.09
2023-04-08T04:23:57.323Z,65.41
2023-04-08T04:24:57.341Z,65.61
2023-04-08T04:25:57.315Z,65.20
2023-04-08T04:26:57.324Z,65.30
2023-04-08T04:27:57.315Z,66.33
2023-04-08T04:28:57.302Z,66.67
2023-04-08T04:29:57.278Z,67.61
2023-04-08T04:30:57.308Z,67.91
2023-04-08T04:31:57.248Z,68.43
2023-04-08T04:32:57.262Z,69.47
2023-04-08T04:33:57.206Z,70.29
2023-04-08T04:34:57.184Z,70.84
2023-04-08T04:35:57.247Z,71.57
2023-04-08T04:36:57.136Z,71.98
2023-04-08T04:37:57.221Z,72.08
2023-04-08T04:38:57.121Z,72.39
2023-04-08T04:39:57.136Z,73.12
2023-04-08T04:40:57.100Z,73.22
2023-04-08T04:41:57.122Z,73.22
2023-04-08T04:42:57.088Z,73.22
2023-04-08T04:43:57.117Z,73.33
2023-04-08T04:44:57.085Z,73.77
2023-04-08T04:45:57.209Z,74.60
2023-04-08T04:46:57.039Z,74.91
2023-04-08T04:47:57.134Z,75.12
2023-04-08T04:48:57.042Z,74.81
2023-04-08T04:49:57.038Z,75.32
2023-04-08T04:50:57.003Z,75.22
2023-04-08T04:51:57.011Z,75.74
2023-04-08T04:52:56.985Z,76.15
2023-04-08T04:53:56.997Z,76.26
2023-04-08T04:54:56.980Z,76.05
2023-04-08T04:55:56.966Z,76.26
2023-04-08T04:56:56.946Z,76.84
2023-04-08T04:57:56.949Z,76.64
2023-04-08T04:58:56.942Z,76.12
2023-04-08T04:59:56.953Z,76.12
2023-04-08T05:00:56.929Z,76.78
2023-04-08T05:01:56.994Z,77.50
2023-04-08T05:02:56.928Z,78.33
2023-04-08T05:03:56.893Z,78.12
2023-04-08T05:04:56.893Z,78.53
2023-04-08T05:05:56.893Z,78.33
2023-04-08T05:06:56.839Z,78.74
2023-04-08T05:07:56.857Z,78.22
2023-04-08T05:08:56.828Z,78.64
2023-04-08T05:09:56.876Z,78.64
2023-04-08T05:10:56.860Z,79.16
2023-04-08T05:11:56.818Z,79.57
2023-04-08T05:12:56.789Z,79.98
2023-04-08T05:13:56.808Z,80.19
2023-04-08T05:14:56.797Z,79.88
2023-04-08T05:15:56.808Z,79.88
2023-04-08T05:16:56.738Z,79.77
2023-04-08T05:17:56.788Z,79.98
2023-04-08T05:18:56.729Z,80.40
2023-04-08T05:19:56.739Z,80.71
2023-04-08T05:20:56.725Z,80.40
2023-04-08T05:21:56.723Z,80.81
2023-04-08T05:22:56.709Z,80.91
2023-04-08T05:23:56.708Z,80.60
2023-04-08T05:24:56.673Z,80.71
2023-04-08T05:25:56.703Z,80.81
2023-04-08T05:26:56.652Z,81.02
2023-04-08T05:27:56.659Z,81.54
2023-04-08T05:28:56.670Z,81.33
2023-04-08T05:29:56.636Z,81.54
2023-04-08T05:30:56.605Z,81.54
2023-04-08T05:31:56.626Z,81.43
2023-04-08T05:33:03.432Z,81.33
2023-04-08T05:33:56.647Z,81.43
2023-04-08T05:35:03.338Z,82.05
2023-04-08T05:35:56.604Z,82.05
2023-04-08T05:36:56.561Z,82.05
2023-04-08T05:37:56.554Z,82.36
2023-04-08T05:38:56.536Z,82.26
2023-04-08T05:39:56.536Z,82.46
2023-04-08T05:40:56.514Z,82.57
2023-04-08T05:41:56.542Z,82.46
2023-04-08T05:42:56.492Z,82.26
2023-04-08T05:43:56.501Z,82.36
2023-04-08T05:44:56.471Z,82.36
2023-04-08T05:45:56.476Z,82.98
2023-04-08T05:46:56.512Z,82.46
2023-04-08T05:47:56.507Z,82.46
2023-04-08T05:48:56.448Z,82.57
2023-04-08T05:49:56.450Z,82.78
2023-04-08T05:50:56.432Z,82.78
2023-04-08T05:51:56.410Z,82.88
2023-04-08T05:52:56.383Z,83.19
2023-04-08T05:53:56.415Z,83.40
2023-04-08T05:54:56.363Z,83.71
2023-04-08T05:55:56.383Z,83.40
2023-04-08T05:56:56.370Z,83.29
2023-04-08T05:57:56.356Z,83.29
2023-04-08T05:58:56.347Z,83.40
2023-04-08T05:59:56.330Z,83.61
2023-04-08T06:00:56.294Z,83.50
2023-04-08T06:01:56.458Z,83.61
2023-04-08T06:02:56.440Z,83.71
2023-04-08T06:03:56.835Z,83.81
2023-04-08T06:04:56.361Z,83.81
2023-04-08T06:05:56.293Z,83.91
2023-04-08T06:06:56.230Z,83.91
2023-04-08T06:07:56.247Z,84.01
2023-04-08T06:08:56.208Z,84.43
2023-04-08T06:09:56.249Z,84.64
2023-04-08T06:10:56.219Z,84.53
2023-04-08T06:11:56.205Z,84.84
2023-04-08T06:12:56.185Z,84.95
2023-04-08T06:13:56.183Z,84.64
2023-04-08T06:14:56.245Z,84.43
2023-04-08T06:15:56.185Z,84.53
2023-04-08T06:16:56.169Z,84.74
2023-04-08T06:17:56.173Z,84.74
2023-04-08T06:18:56.124Z,84.74
2023-04-08T06:19:56.127Z,84.95
2023-04-08T06:20:56.088Z,85.16
2023-04-08T06:21:56.119Z,84.95
2023-04-08T06:22:56.076Z,85.05
2023-04-08T06:23:56.095Z,85.05
2023-04-08T06:24:56.046Z,84.91
2023-04-08T06:25:56.057Z,84.70
2023-04-08T06:26:56.044Z,84.81
2023-04-08T06:27:56.071Z,84.91
2023-04-08T06:28:56.009Z,84.91
2023-04-08T06:29:56.025Z,84.91
2023-04-08T06:30:55.988Z,84.81
2023-04-08T06:31:56.030Z,84.91
2023-04-08T06:32:55.996Z,85.11
2023-04-08T06:33:55.978Z,85.32
2023-04-08T06:34:55.960Z,85.32
2023-04-08T06:35:55.979Z,85.32
2023-04-08T06:36:55.960Z,85.42
2023-04-08T06:37:55.975Z,85.53
2023-04-08T06:38:55.944Z,85.32
2023-04-08T06:39:55.941Z,85.42
2023-04-08T06:40:55.893Z,85.32
2023-04-08T06:41:55.901Z,85.32
2023-04-08T06:42:55.893Z,85.63
2023-04-08T06:43:55.901Z,85.53
2023-04-08T06:44:55.852Z,85.74
2023-04-08T06:45:55.894Z,85.94
2023-04-08T06:46:55.832Z,85.94
2023-04-08T06:47:55.863Z,85.91
2023-04-08T06:48:55.833Z,85.80
2023-04-08T06:49:55.852Z,85.91
2023-04-08T06:50:55.796Z,85.91
2023-04-08T06:51:55.798Z,85.80
2023-04-08T06:52:55.773Z,85.70
2023-04-08T06:53:55.798Z,85.80
2023-04-08T06:54:55.939Z,86.01
2023-04-08T06:55:55.773Z,86.11
2023-04-08T06:56:55.718Z,86.01
2023-04-08T06:57:55.744Z,86.21
2023-04-08T06:58:55.748Z,86.21
2023-04-08T06:59:55.716Z,86.11
2023-04-08T07:00:55.742Z,86.21
2023-04-08T07:01:55.797Z,86.73
2023-04-08T07:02:55.797Z,86.94
2023-04-08T07:03:55.797Z,87.25
2023-04-08T07:04:55.668Z,87.04
2023-04-08T07:05:55.660Z,86.94
2023-04-08T07:06:55.630Z,87.04
2023-04-08T07:07:55.633Z,87.04
2023-04-08T07:08:55.657Z,87.46
2023-04-08T07:09:55.636Z,87.66
2023-04-08T07:10:55.666Z,87.46
2023-04-08T07:11:55.597Z,87.35
2023-04-08T07:12:55.565Z,87.46
2023-04-08T07:13:55.578Z,87.66
2023-04-08T07:14:55.540Z,88.07
2023-04-08T07:15:55.689Z,88.28
2023-04-08T07:16:55.548Z,87.76
2023-04-08T07:17:55.586Z,87.97
2023-04-08T07:18:55.500Z,87.97
2023-04-08T07:19:55.517Z,88.28
2023-04-08T07:20:55.659Z,87.56
2023-04-08T07:21:55.903Z,88.12
2023-04-08T07:22:55.468Z,88.53
2023-04-08T07:23:55.481Z,88.94
2023-04-08T07:24:55.445Z,88.64
2023-04-08T07:25:55.733Z,89.04
2023-04-08T07:26:55.420Z,89.25
2023-04-08T07:27:55.437Z,89.46
2023-04-08T07:28:55.401Z,89.77
2023-04-08T07:29:55.423Z,90.29
2023-04-08T07:30:55.696Z,90.08
2023-04-08T07:31:55.435Z,89.77
2023-04-08T07:32:55.399Z,89.67
2023-04-08T07:33:55.383Z,89.42
2023-04-08T07:34:55.346Z,89.42
2023-04-08T07:35:55.390Z,89.94
2023-04-08T07:36:55.324Z,89.73
2023-04-08T07:37:55.373Z,89.42
2023-04-08T07:38:55.307Z,89.62
2023-04-08T07:39:55.315Z,89.83
2023-04-08T07:40:55.278Z,90.04
2023-04-08T07:41:55.294Z,89.73
2023-04-08T07:42:55.321Z,89.42
2023-04-08T07:43:55.275Z,89.32
2023-04-08T07:44:55.246Z,89.42
2023-04-08T07:45:55.260Z,89.52
2023-04-08T07:46:55.224Z,89.83
2023-04-08T07:47:55.328Z,89.83
2023-04-08T07:48:55.197Z,90.14
2023-04-08T07:49:55.220Z,90.20
2023-04-08T07:51:08.238Z,90.00
2023-04-08T07:51:55.264Z,89.79
2023-04-08T07:52:55.151Z,89.07
2023-04-08T07:53:55.207Z,88.76
2023-04-08T07:54:55.135Z,88.04
2023-04-08T07:55:55.150Z,87.97
2023-04-08T07:56:55.122Z,88.39
2023-04-08T07:57:55.130Z,88.70
2023-04-08T07:58:55.355Z,89.11
2023-04-08T07:59:55.103Z,88.90
2023-04-08T08:00:55.080Z,89.11
2023-04-08T08:01:55.112Z,89.07
2023-04-08T08:02:55.096Z,88.65
2023-04-08T08:03:55.611Z,88.65
2023-04-08T08:04:55.095Z,88.34
2023-04-08T08:05:55.045Z,88.34
2023-04-08T08:06:55.011Z,88.14
2023-04-08T08:07:55.024Z,87.99
2023-04-08T08:08:54.998Z,87.79
2023-04-08T08:09:55.011Z,88.04
2023-04-08T08:10:55.004Z,88.20
2023-04-08T08:11:55.030Z,87.99
2023-04-08T08:12:54.954Z,87.79
2023-04-08T08:13:54.968Z,87.17
2023-04-08T08:14:54.941Z,87.37
2023-04-08T08:15:55.033Z,87.68
2023-04-08T08:16:54.933Z,87.27
2023-04-08T08:17:55.003Z,87.27
2023-04-08T08:18:54.894Z,87.37
2023-04-08T08:19:54.909Z,87.37
2023-04-08T08:20:54.895Z,87.17
2023-04-08T08:21:54.903Z,86.86
2023-04-08T08:22:57.607Z,86.76
2023-04-08T08:23:54.875Z,86.24
2023-04-08T08:24:54.833Z,86.24
2023-04-08T08:25:54.871Z,86.55
2023-04-08T08:26:54.809Z,86.34
2023-04-08T08:27:54.847Z,86.24
2023-04-08T08:28:54.786Z,86.34
2023-04-08T08:29:54.843Z,86.13
2023-04-08T08:30:54.833Z,86.13
2023-04-08T08:31:54.803Z,86.13
2023-04-08T08:32:54.789Z,86.13
2023-04-08T08:33:54.787Z,86.24
2023-04-08T08:34:54.728Z,86.34
2023-04-08T08:35:54.776Z,86.24
2023-04-08T08:36:54.741Z,86.34
2023-04-08T08:37:54.749Z,86.86
2023-04-08T08:38:54.742Z,86.86
2023-04-08T08:39:54.708Z,86.55
2023-04-08T08:40:54.670Z,86.13
2023-04-08T08:41:54.674Z,86.13
2023-04-08T08:42:54.651Z,86.24
2023-04-08T08:43:54.662Z,86.30
2023-04-08T08:44:54.659Z,86.41
2023-04-08T08:45:54.656Z,86.24
2023-04-08T08:46:54.689Z,86.34
2023-04-08T08:47:54.693Z,86.10
2023-04-08T08:48:54.590Z,85.68
2023-04-08T08:49:54.610Z,85.37
2023-04-08T08:50:54.591Z,85.06
2023-04-08T08:51:54.584Z,85.17
2023-04-08T08:52:54.622Z,84.96
2023-04-08T08:53:54.753Z,84.86
2023-04-08T08:54:54.550Z,84.72
2023-04-08T08:56:54.534Z,84.65
2023-04-08T08:57:54.493Z,84.86
2023-04-08T08:58:54.523Z,85.37
2023-04-08T08:59:54.466Z,85.58
2023-04-08T09:00:54.496Z,85.68
2023-04-08T09:01:54.526Z,85.78
2023-04-08T09:02:54.625Z,85.58
2023-04-08T09:03:54.989Z,85.47
2023-04-08T09:04:54.623Z,85.47
2023-04-08T09:05:54.413Z,85.58
2023-04-08T09:06:54.427Z,85.17
2023-04-08T09:07:54.394Z,85.37
2023-04-08T09:08:54.419Z,85.58
2023-04-08T09:09:54.413Z,85.58
2023-04-08T09:10:54.389Z,85.58
2023-04-08T09:11:54.352Z,85.68
2023-04-08T09:12:54.377Z,85.78
2023-04-08T09:13:54.334Z,85.68
2023-04-08T09:14:54.387Z,85.47
2023-04-08T09:15:54.391Z,85.27
2023-04-08T09:16:54.351Z,85.17
2023-04-08T09:17:54.344Z,85.47
2023-04-08T09:18:54.304Z,85.47
2023-04-08T09:19:54.272Z,85.37
2023-04-08T09:20:54.317Z,85.44
2023-04-08T09:21:54.247Z,85.13
2023-04-08T09:22:54.263Z,84.92
2023-04-08T09:23:54.381Z,84.81
2023-04-08T09:24:54.269Z,84.72
2023-04-08T09:25:54.214Z,84.51
2023-04-08T09:26:54.225Z,84.51
2023-04-08T09:27:54.195Z,84.51
2023-04-08T09:28:54.196Z,84.61
2023-04-08T09:29:54.186Z,84.72
2023-04-08T09:30:54.176Z,84.72
2023-04-08T09:31:54.188Z,84.72
2023-04-08T09:32:54.193Z,84.72
2023-04-08T09:33:54.130Z,84.72
2023-04-08T09:34:54.148Z,84.81
2023-04-08T09:35:54.171Z,84.92
2023-04-08T09:36:54.145Z,84.92
2023-04-08T09:37:54.090Z,85.02
2023-04-08T09:38:54.107Z,85.13
2023-04-08T09:39:54.058Z,85.13
2023-04-08T09:40:54.090Z,85.13
2023-04-08T09:41:54.049Z,85.02
2023-04-08T09:42:54.082Z,84.92
2023-04-08T09:43:54.041Z,84.81
2023-04-08T09:44:54.039Z,84.92
2023-04-08T09:45:54.054Z,85.23
2023-04-08T09:46:54.047Z,85.54
2023-04-08T09:47:54.014Z,85.54
2023-04-08T09:48:53.992Z,85.64
2023-04-08T09:49:53.968Z,85.23
2023-04-08T09:50:53.982Z,85.23
2023-04-08T09:51:53.969Z,85.44
2023-04-08T09:52:53.977Z,85.33
2023-04-08T09:53:53.935Z,85.33
2023-04-08T09:54:53.951Z,85.30
2023-04-08T09:55:53.912Z,85.50
2023-04-08T09:56:53.926Z,85.81
2023-04-08T09:57:53.915Z,84.88
2023-04-08T09:58:53.889Z,84.16
2023-04-08T09:59:53.877Z,84.36
2023-04-08T10:00:53.963Z,84.47
2023-04-08T10:01:53.967Z,84.57
2023-04-08T10:02:54.333Z,84.78
2023-04-08T10:03:54.246Z,84.78
2023-04-08T10:04:53.899Z,84.67
2023-04-08T10:05:53.808Z,84.78
2023-04-08T10:06:53.839Z,84.78
2023-04-08T10:07:53.786Z,84.88
2023-04-08T10:08:54.484Z,84.99
2023-04-08T10:09:53.755Z,85.19
2023-04-08T10:10:53.798Z,85.30
2023-04-08T10:11:53.729Z,85.30
2023-04-08T10:12:53.752Z,85.30
2023-04-08T10:13:53.766Z,85.50
2023-04-08T10:14:53.763Z,85.85
2023-04-08T10:15:53.696Z,85.85
2023-04-08T10:16:53.765Z,86.26
2023-04-08T10:17:53.717Z,86.26
2023-04-08T10:18:53.691Z,86.26
2023-04-08T10:19:53.688Z,86.36
2023-04-08T10:20:53.666Z,86.26
2023-04-08T10:21:53.638Z,86.12
2023-04-08T10:22:53.651Z,85.71
2023-04-08T10:23:53.612Z,85.30
2023-04-08T10:24:53.669Z,84.88
2023-04-08T10:25:53.590Z,84.88
2023-04-08T10:26:53.605Z,84.78
2023-04-08T10:27:53.571Z,84.64
2023-04-08T10:28:53.584Z,84.43
2023-04-08T10:29:53.550Z,84.74
2023-04-08T10:30:54.116Z,84.78
2023-04-08T10:31:53.546Z,84.94
2023-04-08T10:32:53.632Z,84.99
2023-04-08T10:33:53.508Z,85.09
2023-04-08T10:34:53.521Z,84.94
2023-04-08T10:35:53.591Z,84.99
2023-04-08T10:36:53.526Z,85.50
2023-04-08T10:37:53.495Z,86.05
2023-04-08T10:38:53.488Z,86.78
2023-04-08T10:39:53.450Z,86.78
2023-04-08T10:40:53.463Z,86.47
2023-04-08T10:41:53.477Z,85.91
2023-04-08T10:42:53.432Z,85.71
2023-04-08T10:43:53.400Z,85.50
2023-04-08T10:44:53.433Z,85.39
2023-04-08T10:45:53.434Z,85.25
2023-04-08T10:46:53.392Z,84.94
2023-04-08T10:47:53.401Z,84.84
2023-04-08T10:48:53.380Z,84.84
2023-04-08T10:49:53.345Z,84.64
2023-04-08T10:50:53.351Z,84.74
2023-04-08T10:51:53.319Z,85.05
2023-04-08T10:52:53.353Z,85.39
2023-04-08T10:53:53.320Z,85.91
2023-04-08T10:54:53.330Z,86.22
2023-04-08T10:55:53.287Z,86.47
2023-04-08T10:56:53.331Z,86.43
2023-04-08T10:57:53.265Z,86.43
2023-04-08T10:58:53.301Z,86.22
2023-04-08T10:59:53.234Z,86.02
2023-04-08T11:00:53.284Z,85.91
2023-04-08T11:01:53.325Z,85.81
2023-04-08T11:02:53.375Z,85.81
2023-04-08T11:03:53.598Z,85.71
2023-04-08T11:04:53.211Z,85.71
2023-04-08T11:05:53.172Z,85.67
2023-04-08T11:06:53.207Z,85.36
2023-04-08T11:07:53.153Z,85.15
2023-04-08T11:08:53.204Z,85.15
2023-04-08T11:09:53.133Z,85.05
2023-04-08T11:10:53.164Z,84.94
2023-04-08T11:11:53.116Z,84.59
2023-04-08T11:12:53.155Z,84.49
2023-04-08T11:13:53.971Z,84.91
2023-04-08T11:14:53.141Z,84.59
2023-04-08T11:15:53.108Z,84.29
2023-04-08T11:16:53.092Z,84.19
2023-04-08T11:17:53.077Z,84.08
2023-04-08T11:18:53.096Z,84.19
2023-04-08T11:19:53.058Z,84.39
2023-04-08T11:20:53.046Z,84.49
2023-04-08T11:21:53.014Z,84.80
2023-04-08T11:22:53.030Z,85.05
2023-04-08T11:23:54.102Z,85.36
2023-04-08T11:24:53.008Z,85.46
2023-04-08T11:25:52.997Z,85.36
2023-04-08T11:26:53.001Z,85.36
2023-04-08T11:27:52.958Z,85.46
2023-04-08T11:28:52.978Z,85.22
2023-04-08T11:29:52.961Z,85.01
2023-04-08T11:30:52.971Z,85.01
2023-04-08T11:31:52.913Z,84.80
2023-04-08T11:32:52.997Z,85.11
2023-04-08T11:33:53.225Z,85.57
2023-04-08T11:34:52.937Z,85.42
2023-04-08T11:35:52.904Z,85.01
2023-04-08T11:36:52.888Z,84.91
2023-04-08T11:37:52.867Z,84.77
2023-04-08T11:38:52.865Z,84.25
2023-04-08T11:39:52.833Z,83.59
2023-04-08T11:40:52.872Z,82.97
2023-04-08T11:41:52.816Z,82.77
2023-04-08T11:42:52.841Z,82.83
2023-04-08T11:43:52.933Z,82.01
2023-04-08T11:44:52.835Z,81.70
2023-04-08T11:45:52.811Z,81.39
2023-04-08T11:46:52.925Z,81.15
2023-04-08T11:47:52.856Z,80.94
2023-04-08T11:48:52.762Z,80.94
2023-04-08T11:49:52.740Z,80.94
2023-04-08T11:50:52.739Z,80.63
2023-04-08T11:51:52.765Z,80.74
2023-04-08T11:52:52.769Z,81.19
2023-04-08T11:53:55.956Z,81.91
2023-04-08T11:54:52.701Z,81.91
2023-04-08T11:55:52.678Z,81.81
2023-04-08T11:56:52.679Z,81.67
2023-04-08T11:57:52.677Z,81.25
2023-04-08T11:58:52.664Z,80.49
2023-04-08T11:59:52.629Z,79.77
2023-04-08T12:00:52.641Z,79.98
2023-04-08T12:01:52.630Z,79.77
2023-04-08T12:02:52.763Z,79.88
2023-04-08T12:03:53.112Z,79.88
2023-04-08T12:04:52.729Z,79.77
2023-04-08T12:05:52.561Z,79.98
2023-04-08T12:06:52.577Z,79.88
2023-04-08T12:07:52.563Z,79.67
2023-04-08T12:08:52.561Z,79.47
2023-04-08T12:09:52.559Z,79.33
2023-04-08T12:10:52.550Z,78.92
2023-04-08T12:11:52.512Z,79.16
2023-04-08T12:12:52.514Z,79.36
2023-04-08T12:13:52.957Z,79.26
2023-04-08T12:14:52.525Z,79.47
2023-04-08T12:15:52.506Z,79.57
2023-04-08T12:16:52.477Z,79.84
2023-04-08T12:17:52.469Z,79.22
2023-04-08T12:18:52.493Z,79.02
2023-04-08T12:19:52.448Z,79.33
2023-04-08T12:20:52.424Z,79.57
2023-04-08T12:21:52.413Z,79.98
2023-04-08T12:22:52.452Z,80.29
2023-04-08T12:23:52.881Z,80.60
2023-04-08T12:24:52.381Z,80.70
2023-04-08T12:25:52.350Z,80.49
2023-04-08T12:26:52.370Z,79.94
2023-04-08T12:27:52.352Z,79.53
2023-04-08T12:28:52.391Z,79.33
2023-04-08T12:29:52.321Z,79.33
2023-04-08T12:30:52.328Z,79.53
2023-04-08T12:31:52.305Z,79.33
2023-04-08T12:32:52.327Z,79.63
2023-04-08T12:33:52.421Z,79.74
2023-04-08T12:34:52.653Z,79.63
2023-04-08T12:35:52.333Z,79.43
2023-04-08T12:36:52.274Z,79.74
2023-04-08T12:37:52.235Z,80.19
2023-04-08T12:38:52.441Z,80.29
2023-04-08T12:39:52.211Z,79.94
2023-04-08T12:40:52.293Z,79.74
2023-04-08T12:41:52.231Z,79.70
2023-04-08T12:42:52.236Z,79.49
2023-04-08T12:43:52.194Z,79.12
2023-04-08T12:44:52.184Z,79.74
2023-04-08T12:45:52.252Z,79.49
2023-04-08T12:46:52.200Z,79.08
2023-04-08T12:47:52.158Z,78.78
2023-04-08T12:49:03.420Z,78.98
2023-04-08T12:49:52.135Z,79.19
2023-04-08T12:50:52.172Z,79.29
2023-04-08T12:51:52.086Z,79.29
2023-04-08T12:52:52.127Z,79.08